NFFNNFNA

Guest
Details From NFFN - Nadi Intl
To NFNA - Nausori Intl
Flight Number -
Tags Decoded
Created
Modified
Stats Distance 131 nm / 242 km
Max Altitude 0 ft / 0 m
Waypoints 3
Social Downloads 3
Likes 0
Share VATSIM

Download

Looking for another format? Having issues loading an existing format? Contact us
Advertisement - Login to hide

Notes

Decoded

Route

NFFN EXORA NFNA

ID Type Via Altitude Latitude Longitude Leg Dist Tot Dist Heading (true) Name
O NFFN APT - 0 ft / 0 m -17.75352˚ 177.43591˚ - 0 nm - -
EXORA FIX - 0 ft / 0 m -17.91333˚ 179.12667˚ 97 nm 97 nm 96° / 95° -
O NFNA APT - 0 ft / 0 m -18.04050˚ 178.55091˚ 33 nm 130 nm 257° / 257° -

Altitude Profile

Advertisement - Login to hide

NFFN

Details ICAO NFFN (NAN)
Name Nadi Intl
Region Fiji and Tonga
Timezone Pacific/Fiji (UTC+12.0)
Stats Elevation 59 ft / 18 m (AMSL)
Location -17.758366° 177.442147°
Runways 2
Magnetic Variation 12.418° E

METAR

NFFN 241600Z 06004KT 9999 FEW030 22/21 Q1011 NOSIG

Decode

TAF

TAF NFFN 241100Z 2412/2512 VRB03KT 9999 SCT030 BECMG 2421/2423 28010KT PROB30 TEMPO 2502/2506 5000 SHRA BKN017 BECMG 2504/2506 08005KT

Decode

Departure Runways

ID Width Length Bearing (true) Bearing (mag) Surface Threshold Offset Overrun Length
02 151 ft / 46 m 10,529 ft / 3,209 m 37.50° 25.08° Asphalt 0 ft / 0 m 0 ft / 0 m
09 151 ft / 46 m 6,989 ft / 2,130 m 104.20° 91.78° Asphalt 0 ft / 0 m 95 ft / 29 m
20 151 ft / 46 m 10,529 ft / 3,209 m 217.50° 205.08° Asphalt 0 ft / 0 m 0 ft / 0 m
27 151 ft / 46 m 6,989 ft / 2,130 m 284.20° 271.78° Asphalt 0 ft / 0 m 0 ft / 0 m

NFNA

Details ICAO NFNA (SUV)
Name Nausori Intl
Region Fiji and Tonga
Timezone Pacific/Fiji (UTC+12.0)
Stats Elevation 17 ft / 5 m (AMSL)
Location -18.043328° 178.559247°
Runways 1
Magnetic Variation 12.546° E

METAR

NFNA 241600Z 33003KT 9999 FEW020 22/22 Q1012

Decode

TAF

TAF NFNA 241535Z 2416/2512 VRB03KT 1500 BR FEW020 FM241900 9999 08008KT SCT018

Decode

Destination Runways

ID Width Length Bearing (true) Bearing (mag) Surface Threshold Offset Overrun Length
10 98 ft / 30 m 6,130 ft / 1,869 m 109.30° 96.75° Asphalt 404 ft / 123 m 0 ft / 0 m
28 98 ft / 30 m 6,130 ft / 1,869 m 289.30° 276.75° Asphalt 0 ft / 0 m 295 ft / 90 m

Popular Alternatives